Time;durP1;ratioP1;P1;durP2;ratioP2;P2;SDS_P1;SDS_P2;PMS_P1;PMS_P2;Temp;Humidity;BMP_temperature;BMP_pressure;BME280_temperature;BME280_humidity;BME280_pressure;Samples;Min_cycle;Max_cycle;Signal;HPM_P1;HPM_P2
2024/03/24 05:01:53;;;;;;;1.00;0.90;;;2.70;97.30;;;;;;5430660;23;20495;-93
2024/03/24 05:04:19;;;;;;;1.43;1.37;;;2.80;97.30;;;;;;4996386;28;20532;-91
2024/03/24 05:06:44;;;;;;;1.10;1.00;;;2.80;97.30;;;;;;4997423;28;20177;-93
2024/03/24 05:09:10;;;;;;;1.00;0.90;;;2.80;97.30;;;;;;4995887;28;20182;-92
2024/03/24 05:11:36;;;;;;;1.47;1.37;;;2.80;97.30;;;;;;4989017;28;20186;-94
2024/03/24 05:14:03;;;;;;;1.33;1.23;;;2.80;97.30;;;;;;4987841;28;20614;-87
2024/03/24 05:16:31;;;;;;;1.10;1.00;;;2.80;97.30;;;;;;4963746;28;20197;-88
2024/03/24 05:19:03;;;;;;;1.20;1.10;;;2.90;97.30;;;;;;4963454;28;20447;-87
2024/03/24 05:21:28;;;;;;;1.33;1.27;;;2.90;97.30;;;;;;4964824;28;20452;-91
2024/03/24 05:23:54;;;;;;;1.10;1.00;;;3.00;97.30;;;;;;4956159;28;20866;-87
2024/03/24 05:26:19;;;;;;;1.10;1.00;;;3.00;97.30;;;;;;4959070;28;20206;-88
2024/03/24 05:28:45;;;;;;;1.77;1.67;;;3.00;97.30;;;;;;4965190;28;20348;-88
2024/03/24 05:31:10;;;;;;;1.20;1.10;;;3.10;97.30;;;;;;4987015;28;20202;-86
2024/03/24 05:33:36;;;;;;;5.20;2.50;;;3.10;97.30;;;;;;4960604;28;20175;-88
2024/03/24 05:36:03;;;;;;;1.00;0.90;;;3.20;97.30;;;;;;4961392;28;20181;-87
2024/03/24 05:38:31;;;;;;;1.23;1.10;;;3.20;97.30;;;;;;4964159;28;20182;-87
2024/03/24 05:41:02;;;;;;;0.93;0.83;;;3.30;97.30;;;;;;4967864;28;20441;-87
2024/03/24 05:43:28;;;;;;;3.33;1.30;;;3.40;97.30;;;;;;4969120;28;20420;-88
2024/03/24 05:45:57;;;;;;;2.60;1.27;;;3.50;97.30;;;;;;4972013;28;20423;-89
2024/03/24 05:48:23;;;;;;;1.70;1.67;;;3.60;97.30;;;;;;4971140;28;20256;-87
2024/03/24 05:51:05;;;;;;;1.47;1.37;;;3.70;97.30;;;;;;4974647;28;20444;-90
2024/03/24 05:53:34;;;;;;;1.50;1.13;;;3.70;97.30;;;;;;4961185;28;20565;-88
2024/03/24 05:56:01;;;;;;;1.23;1.10;;;3.80;97.30;;;;;;4971409;28;20431;-88
2024/03/24 05:58:29;;;;;;;1.30;1.20;;;3.90;97.30;;;;;;4981647;28;20421;-90
2024/03/24 06:00:55;;;;;;;1.30;1.20;;;4.00;97.30;;;;;;4965308;28;20445;-86
2024/03/24 06:03:20;;;;;;;1.43;1.33;;;4.00;97.30;;;;;;4970631;28;21001;-90
2024/03/24 06:05:46;;;;;;;0.90;0.80;;;4.00;97.30;;;;;;4958960;28;20248;-86
2024/03/24 06:08:12;;;;;;;1.10;1.00;;;4.10;97.30;;;;;;4962026;28;20213;-88
2024/03/24 06:10:40;;;;;;;1.00;0.90;;;4.20;97.30;;;;;;4967033;28;20190;-89
2024/03/24 06:13:06;;;;;;;1.10;1.00;;;4.20;97.30;;;;;;4958846;28;20202;-89
2024/03/24 06:15:32;;;;;;;1.00;0.90;;;4.30;97.30;;;;;;4958853;28;20424;-89
2024/03/24 06:18:04;;;;;;;1.20;1.00;;;4.30;97.30;;;;;;4965655;28;20418;-88
2024/03/24 06:20:30;;;;;;;2.70;1.27;;;4.30;97.30;;;;;;4958164;28;20186;-88
2024/03/24 06:22:58;;;;;;;1.00;0.90;;;4.30;97.30;;;;;;4972343;28;20422;-88
2024/03/24 06:25:23;;;;;;;1.00;0.90;;;4.30;97.30;;;;;;4963570;28;20463;-88
2024/03/24 06:27:49;;;;;;;3.40;2.10;;;4.30;97.30;;;;;;4964040;28;20426;-86
2024/03/24 06:30:15;;;;;;;1.20;1.10;;;4.30;97.30;;;;;;4959179;28;20442;-87
2024/03/24 06:32:40;;;;;;;1.33;1.23;;;4.40;97.30;;;;;;4960303;28;20758;-87
2024/03/24 06:35:10;;;;;;;1.47;1.37;;;4.50;97.30;;;;;;4960624;28;20178;-90
2024/03/24 06:37:36;;;;;;;2.70;2.50;;;4.50;97.30;;;;;;4960686;28;20219;-90
2024/03/24 06:40:01;;;;;;;1.30;1.20;;;4.60;97.30;;;;;;4972091;28;20509;-87
2024/03/24 06:42:27;;;;;;;1.00;0.90;;;4.70;97.30;;;;;;4957907;28;20740;-88
2024/03/24 06:44:56;;;;;;;1.00;0.90;;;4.70;97.30;;;;;;4973599;28;20209;-89
2024/03/24 06:47:21;;;;;;;1.00;0.90;;;4.80;97.30;;;;;;4961409;28;20229;-88
2024/03/24 06:49:47;;;;;;;1.17;1.07;;;4.90;97.30;;;;;;4964100;28;20908;-88
2024/03/24 06:52:12;;;;;;;1.57;1.47;;;4.90;97.30;;;;;;4964745;28;20660;-88
2024/03/24 06:54:40;;;;;;;1.27;1.17;;;5.00;97.30;;;;;;4965833;28;20324;-88
2024/03/24 06:57:08;;;;;;;0.90;0.80;;;5.00;97.30;;;;;;4971952;28;20198;-91
2024/03/24 06:59:41;;;;;;;1.30;1.20;;;5.10;97.30;;;;;;5015502;23;20496;-87
2024/03/24 07:02:10;;;;;;;1.57;1.47;;;5.20;97.30;;;;;;4967500;28;20440;-89
2024/03/24 07:07:41;;;;;;;0.90;0.80;;;5.50;97.30;;;;;;4969176;28;20484;-88
2024/03/24 07:10:10;;;;;;;1.40;1.00;;;5.60;97.30;;;;;;4972542;28;20478;-88
2024/03/24 07:12:42;;;;;;;1.50;1.40;;;5.70;97.30;;;;;;4965134;28;20618;-89
2024/03/24 07:15:11;;;;;;;1.00;0.90;;;5.80;97.30;;;;;;4958090;28;20457;-89
2024/03/24 07:17:36;;;;;;;2.60;2.40;;;5.90;97.30;;;;;;4958103;28;20489;-88
2024/03/24 07:20:02;;;;;;;1.00;0.90;;;6.00;97.30;;;;;;4965307;28;20801;-88
2024/03/24 07:22:27;;;;;;;0.90;0.80;;;6.10;97.30;;;;;;4957914;28;20198;-88
2024/03/24 07:24:53;;;;;;;1.30;1.20;;;6.10;97.30;;;;;;4964920;28;20265;-89
2024/03/24 07:27:18;;;;;;;1.00;0.90;;;6.20;97.30;;;;;;4957445;28;20178;-89
2024/03/24 07:29:44;;;;;;;0.90;0.80;;;6.40;97.30;;;;;;4957349;28;20220;-89
2024/03/24 07:32:10;;;;;;;1.73;1.10;;;6.50;97.30;;;;;;4961161;28;20271;-89
2024/03/24 07:34:35;;;;;;;1.87;1.37;;;6.60;97.30;;;;;;4968237;28;20193;-88
2024/03/24 07:37:01;;;;;;;0.90;0.80;;;6.80;97.30;;;;;;4975166;28;20627;-88
2024/03/24 07:39:27;;;;;;;3.10;1.43;;;6.90;97.30;;;;;;4964972;28;20774;-88
2024/03/24 07:41:52;;;;;;;0.90;0.80;;;7.00;97.30;;;;;;4958327;28;20182;-89
2024/03/24 07:44:19;;;;;;;0.90;0.80;;;7.20;97.30;;;;;;4963027;28;20735;-88
2024/03/24 07:46:44;;;;;;;1.00;0.90;;;7.20;97.30;;;;;;4948323;28;20183;-88
2024/03/24 07:49:10;;;;;;;1.70;1.00;;;7.10;97.30;;;;;;4956441;28;20513;-88
2024/03/24 07:51:37;;;;;;;1.07;1.00;;;6.90;97.30;;;;;;4956439;28;20178;-88
2024/03/24 07:54:03;;;;;;;1.30;1.20;;;6.70;97.30;;;;;;4956689;28;20426;-89
2024/03/24 07:56:28;;;;;;;1.10;1.00;;;6.50;97.30;;;;;;4956714;28;20453;-88
2024/03/24 07:58:54;;;;;;;1.37;1.00;;;6.40;97.30;;;;;;4968360;28;20219;-88
2024/03/24 08:01:19;;;;;;;2.80;2.60;;;6.40;97.30;;;;;;4981310;28;20234;-89
2024/03/24 08:03:45;;;;;;;1.00;0.90;;;6.40;97.30;;;;;;4955601;28;20191;-89
2024/03/24 08:06:11;;;;;;;1.53;1.43;;;6.40;97.30;;;;;;4956552;28;20269;-87
2024/03/24 08:08:36;;;;;;;0.90;0.80;;;6.40;97.30;;;;;;4956014;28;20221;-87
2024/03/24 08:11:02;;;;;;;1.00;0.90;;;6.40;97.30;;;;;;4956722;28;20194;-89
2024/03/24 08:13:28;;;;;;;1.20;1.10;;;6.40;97.30;;;;;;4956590;28;20215;-87
2024/03/24 08:15:54;;;;;;;1.10;1.00;;;6.50;97.30;;;;;;4973906;28;20422;-88
2024/03/24 08:18:19;;;;;;;1.60;1.50;;;6.50;97.30;;;;;;4983902;28;20209;-85
2024/03/24 08:20:48;;;;;;;1.70;1.57;;;6.70;97.30;;;;;;4997353;28;20253;-85
2024/03/24 08:23:15;;;;;;;1.77;1.50;;;6.80;97.30;;;;;;4980555;28;20291;-86
2024/03/24 08:25:46;;;;;;;0.90;0.80;;;7.10;97.30;;;;;;4980136;28;20561;-85
2024/03/24 08:28:11;;;;;;;1.33;1.23;;;7.20;97.30;;;;;;4980480;28;20489;-84
2024/03/24 08:30:40;;;;;;;1.40;1.30;;;7.20;97.30;;;;;;4980546;28;20457;-86
2024/03/24 08:33:08;;;;;;;1.17;1.07;;;7.30;97.30;;;;;;4997621;28;20163;-85
2024/03/24 08:35:34;;;;;;;1.50;1.40;;;7.40;97.30;;;;;;4980539;28;20436;-86
2024/03/24 08:38:00;;;;;;;1.73;1.63;;;7.50;97.30;;;;;;4974092;28;20415;-85
2024/03/24 08:40:25;;;;;;;1.20;0.97;;;7.80;97.30;;;;;;4979996;28;20194;-85
2024/03/24 08:42:51;;;;;;;1.00;0.90;;;8.10;97.30;;;;;;4987306;28;20229;-85
2024/03/24 08:45:17;;;;;;;2.30;2.07;;;8.00;97.30;;;;;;4979816;28;20449;-85
2024/03/24 08:47:42;;;;;;;1.30;1.20;;;7.60;97.30;;;;;;4979888;28;20253;-86
2024/03/24 08:50:08;;;;;;;1.00;0.90;;;7.50;97.30;;;;;;4983219;28;20461;-85
2024/03/24 08:52:34;;;;;;;1.30;1.20;;;7.20;97.30;;;;;;4984660;28;20166;-86
2024/03/24 08:55:00;;;;;;;1.03;0.93;;;6.90;97.30;;;;;;4979560;28;20201;-85
2024/03/24 08:57:28;;;;;;;1.40;1.30;;;6.90;97.30;;;;;;4980362;28;20158;-86
2024/03/24 08:59:55;;;;;;;1.30;1.20;;;7.00;97.30;;;;;;4980048;28;20470;-85
2024/03/24 09:02:21;;;;;;;1.10;1.00;;;6.80;97.30;;;;;;4987846;28;20449;-84
2024/03/24 09:04:46;;;;;;;2.10;1.00;;;6.40;97.30;;;;;;4997225;28;20469;-85
2024/03/24 09:07:13;;;;;;;0.97;0.87;;;6.10;97.30;;;;;;4972669;28;20447;-85
2024/03/24 09:09:38;;;;;;;1.43;1.33;;;5.80;97.30;;;;;;4980292;28;20194;-87
2024/03/24 09:12:04;;;;;;;1.57;1.47;;;5.60;97.30;;;;;;4995875;28;20442;-86
2024/03/24 09:14:29;;;;;;;1.73;1.37;;;5.40;97.30;;;;;;4981697;28;20182;-90
2024/03/24 09:16:55;;;;;;;1.10;1.00;;;5.20;97.30;;;;;;4969044;28;20298;-89
2024/03/24 09:19:21;;;;;;;2.10;1.90;;;5.10;97.30;;;;;;4961289;28;20212;-88
2024/03/24 09:21:46;;;;;;;1.10;1.00;;;5.10;97.30;;;;;;4958185;28;20274;-87
2024/03/24 09:24:12;;;;;;;4.97;1.37;;;5.10;97.30;;;;;;4963517;28;20561;-88
2024/03/24 09:26:41;;;;;;;1.43;1.33;;;5.10;97.30;;;;;;4957751;28;20615;-88
2024/03/24 09:29:09;;;;;;;2.70;1.10;;;5.10;97.30;;;;;;4962666;28;20183;-88
2024/03/24 09:31:35;;;;;;;1.80;1.20;;;5.10;97.30;;;;;;4973467;28;20433;-87
2024/03/24 09:34:00;;;;;;;1.00;1.00;;;5.20;97.30;;;;;;4963506;28;20430;-88
2024/03/24 09:36:25;;;;;;;1.20;1.10;;;5.30;97.30;;;;;;4975242;28;20197;-88
2024/03/24 09:38:51;;;;;;;1.17;1.10;;;5.30;97.30;;;;;;4949488;28;20232;-87
2024/03/24 09:41:16;;;;;;;1.40;1.30;;;5.50;97.30;;;;;;4955727;28;20238;-89
2024/03/24 09:43:42;;;;;;;1.10;1.00;;;5.60;97.30;;;;;;4955689;28;20183;-88
2024/03/24 09:46:09;;;;;;;1.67;1.63;;;5.60;97.30;;;;;;4956981;28;20214;-88
2024/03/24 09:48:38;;;;;;;1.10;1.00;;;5.70;97.30;;;;;;4955541;28;20434;-89
2024/03/24 09:51:06;;;;;;;1.40;1.30;;;5.80;97.30;;;;;;4954483;28;20453;-89
2024/03/24 09:53:34;;;;;;;2.20;2.00;;;5.90;97.30;;;;;;4955341;28;20504;-89
2024/03/24 09:56:01;;;;;;;2.00;1.50;;;5.90;97.30;;;;;;4956552;28;20433;-88
2024/03/24 09:58:27;;;;;;;1.60;1.50;;;6.00;97.30;;;;;;4965550;28;20418;-89
2024/03/24 10:00:53;;;;;;;1.70;1.63;;;6.00;97.30;;;;;;4958023;28;20475;-90
2024/03/24 10:03:19;;;;;;;1.13;1.03;;;5.90;97.30;;;;;;4965262;28;20198;-89
2024/03/24 10:05:48;;;;;;;1.00;0.90;;;5.80;97.30;;;;;;4960908;28;20210;-90
2024/03/24 10:08:14;;;;;;;1.40;1.30;;;5.60;97.30;;;;;;4955807;28;20439;-89
2024/03/24 10:10:40;;;;;;;1.10;1.00;;;5.60;97.30;;;;;;4948715;28;20609;-89
2024/03/24 10:13:05;;;;;;;1.37;1.27;;;5.60;97.30;;;;;;4949954;28;20265;-90
2024/03/24 10:15:33;;;;;;;1.30;1.20;;;5.60;97.30;;;;;;4948966;28;21036;-90
2024/03/24 10:18:06;;;;;;;1.10;1.00;;;5.60;97.30;;;;;;4955324;28;20649;-90
2024/03/24 10:20:39;;;;;;;1.43;1.20;;;5.60;97.30;;;;;;4961123;28;20821;-89
2024/03/24 10:23:04;;;;;;;1.00;0.90;;;5.70;97.30;;;;;;4960780;28;20456;-91
2024/03/24 10:25:32;;;;;;;1.30;1.20;;;5.60;97.30;;;;;;4960880;28;20548;-89
2024/03/24 10:27:59;;;;;;;0.90;0.80;;;5.60;97.30;;;;;;4957396;28;20609;-89
2024/03/24 10:30:25;;;;;;;1.13;1.10;;;5.60;97.30;;;;;;4972440;28;20955;-89
2024/03/24 10:32:51;;;;;;;1.17;1.07;;;5.70;97.30;;;;;;4969884;28;20417;-90
2024/03/24 10:35:20;;;;;;;1.13;1.10;;;5.60;97.30;;;;;;4955186;28;20465;-91
2024/03/24 10:37:46;;;;;;;0.90;0.80;;;5.60;97.30;;;;;;4951351;28;20431;-90
2024/03/24 10:40:16;;;;;;;1.10;1.00;;;5.60;97.30;;;;;;4960570;28;20445;-91
2024/03/24 10:42:52;;;;;;;1.87;1.20;;;5.70;97.30;;;;;;4960439;28;20847;-89
2024/03/24 10:45:26;;;;;;;1.37;1.30;;;5.70;97.30;;;;;;4968084;28;20726;-89
2024/03/24 10:48:03;;;;;;;1.00;0.90;;;5.70;97.30;;;;;;4975213;28;20421;-89
2024/03/24 10:50:29;;;;;;;1.27;1.17;;;5.80;97.30;;;;;;4960205;28;20959;-90
2024/03/24 10:53:02;;;;;;;1.00;0.90;;;5.80;97.30;;;;;;4959614;28;20414;-90
2024/03/24 10:55:29;;;;;;;1.27;1.17;;;5.90;97.30;;;;;;4965170;28;20495;-89
2024/03/24 10:57:56;;;;;;;1.10;1.00;;;5.90;97.30;;;;;;4970156;28;20473;-89
2024/03/24 11:00:28;;;;;;;1.00;0.90;;;6.00;97.30;;;;;;4961105;28;20875;-89
2024/03/24 11:02:57;;;;;;;1.00;0.90;;;6.10;97.30;;;;;;4959126;28;20440;-88
2024/03/24 11:05:25;;;;;;;0.90;0.80;;;6.10;97.30;;;;;;4955213;28;20480;-89
2024/03/24 11:07:52;;;;;;;0.90;0.80;;;6.10;97.30;;;;;;4960651;28;20803;-89
2024/03/24 11:10:18;;;;;;;0.90;0.80;;;6.20;97.30;;;;;;4958194;28;20438;-89
2024/03/24 11:12:48;;;;;;;1.07;0.97;;;6.30;97.30;;;;;;4957339;28;20451;-89
2024/03/24 11:15:14;;;;;;;1.13;1.03;;;6.40;97.30;;;;;;4982279;28;20422;-88
2024/03/24 11:17:40;;;;;;;1.40;1.30;;;6.40;97.30;;;;;;4975851;28;20421;-90
2024/03/24 11:20:15;;;;;;;1.00;0.90;;;6.50;97.30;;;;;;4959843;28;20579;-89
2024/03/24 11:22:44;;;;;;;13.73;1.30;;;6.50;97.30;;;;;;4961215;28;20201;-89
2024/03/24 11:25:10;;;;;;;1.17;1.07;;;6.60;97.30;;;;;;4958662;28;20593;-88
2024/03/24 11:27:41;;;;;;;1.03;0.93;;;6.60;97.30;;;;;;4965941;28;20898;-89
2024/03/24 11:30:11;;;;;;;1.70;1.60;;;6.60;97.30;;;;;;4956145;28;20516;-89
2024/03/24 11:32:54;;;;;;;1.20;1.10;;;6.70;97.30;;;;;;4956501;28;21040;-89
2024/03/24 11:35:28;;;;;;;1.20;1.10;;;6.70;97.30;;;;;;4955920;28;20422;-89
2024/03/24 11:37:56;;;;;;;1.00;0.90;;;6.70;97.30;;;;;;4954942;28;20782;-90
2024/03/24 11:40:23;;;;;;;2.30;2.10;;;6.70;97.30;;;;;;4956353;28;20437;-88
2024/03/24 11:42:53;;;;;;;1.87;1.77;;;6.70;97.30;;;;;;4963274;28;20410;-89
2024/03/24 11:45:28;;;;;;;0.90;0.80;;;6.80;97.30;;;;;;4961942;28;20780;-89
2024/03/24 11:48:16;;;;;;;0.90;0.80;;;6.90;97.30;;;;;;4967644;28;20536;-89
2024/03/24 11:50:44;;;;;;;0.90;0.80;;;6.90;97.30;;;;;;4958204;28;20441;-88
2024/03/24 11:53:10;;;;;;;1.00;0.90;;;7.00;97.30;;;;;;4953839;28;20426;-90
2024/03/24 11:55:38;;;;;;;1.10;1.07;;;7.00;97.30;;;;;;4956221;28;20476;-88
2024/03/24 11:58:03;;;;;;;1.00;0.90;;;7.00;97.30;;;;;;4956185;28;20244;-89
2024/03/24 12:00:30;;;;;;;1.40;1.20;;;7.10;97.30;;;;;;4959270;28;20569;-90
2024/03/24 12:02:55;;;;;;;1.03;0.93;;;7.10;97.30;;;;;;4955644;28;20188;-89
2024/03/24 12:05:21;;;;;;;1.10;1.00;;;7.10;97.30;;;;;;4954945;28;20839;-89
2024/03/24 12:07:47;;;;;;;0.90;0.80;;;7.10;97.30;;;;;;4960796;28;20263;-89
2024/03/24 12:10:13;;;;;;;0.90;0.80;;;7.10;97.30;;;;;;4955571;28;20624;-89
2024/03/24 12:12:38;;;;;;;1.00;0.90;;;7.10;97.30;;;;;;4949795;28;20425;-90
2024/03/24 12:15:04;;;;;;;1.00;1.00;;;7.10;97.30;;;;;;4960787;28;20241;-89
2024/03/24 12:17:30;;;;;;;1.17;1.10;;;7.10;97.30;;;;;;4957745;28;20677;-89
2024/03/24 12:19:55;;;;;;;1.20;1.10;;;7.10;97.30;;;;;;4956414;28;20541;-89
2024/03/24 12:22:21;;;;;;;1.00;0.90;;;7.10;97.30;;;;;;4955140;28;20201;-89
2024/03/24 12:24:46;;;;;;;1.23;1.10;;;7.10;97.30;;;;;;4955831;28;20586;-89
2024/03/24 12:27:14;;;;;;;1.93;1.83;;;7.10;97.30;;;;;;4952602;28;20198;-88
2024/03/24 12:29:40;;;;;;;1.43;1.33;;;7.10;97.30;;;;;;4958440;28;20684;-87
2024/03/24 12:32:11;;;;;;;0.93;0.93;;;7.00;97.30;;;;;;4957493;28;20430;-89
2024/03/24 12:34:37;;;;;;;1.27;1.17;;;7.00;97.30;;;;;;4952506;28;20215;-88
2024/03/24 12:37:05;;;;;;;1.10;1.00;;;7.00;97.30;;;;;;4954524;28;20516;-89
2024/03/24 12:39:31;;;;;;;1.73;1.40;;;7.00;97.30;;;;;;4957124;28;20454;-89
2024/03/24 12:42:10;;;;;;;1.93;1.83;;;7.00;97.30;;;;;;4950883;28;20423;-87
2024/03/24 12:44:38;;;;;;;1.53;1.10;;;7.00;97.30;;;;;;4952830;28;20218;-85
2024/03/24 12:47:14;;;;;;;1.23;1.20;;;7.20;97.30;;;;;;4955596;28;20453;-88
2024/03/24 12:49:40;;;;;;;1.97;1.87;;;7.30;97.30;;;;;;4952535;28;20578;-90
2024/03/24 12:52:06;;;;;;;1.23;1.13;;;7.50;97.30;;;;;;4954844;28;20426;-88
2024/03/24 12:54:33;;;;;;;1.30;1.20;;;7.70;97.30;;;;;;4954922;28;20427;-88
2024/03/24 12:56:59;;;;;;;1.37;1.20;;;8.00;97.30;;;;;;4956084;28;20222;-89
2024/03/24 12:59:25;;;;;;;0.90;0.80;;;8.20;97.30;;;;;;4953352;28;20450;-88
2024/03/24 13:01:51;;;;;;;4.53;1.10;;;8.20;97.30;;;;;;4953339;28;20466;-89
2024/03/24 13:04:18;;;;;;;1.10;1.00;;;8.30;97.30;;;;;;4953874;28;20202;-89
2024/03/24 13:06:45;;;;;;;1.00;0.90;;;8.70;97.30;;;;;;4950311;28;20822;-89
2024/03/24 13:09:12;;;;;;;2.60;1.57;;;9.00;97.30;;;;;;4951966;28;20434;-90
2024/03/24 13:11:38;;;;;;;1.00;0.90;;;9.00;97.30;;;;;;4951435;28;20419;-89
2024/03/24 13:14:04;;;;;;;1.37;1.27;;;9.20;97.30;;;;;;4952061;28;20735;-90
2024/03/24 13:16:46;;;;;;;0.80;0.70;;;9.20;97.30;;;;;;4956864;28;20843;-90
2024/03/24 13:19:36;;;;;;;1.63;1.50;;;9.10;97.30;;;;;;4952080;28;20423;-89
2024/03/24 13:22:03;;;;;;;1.57;1.47;;;8.80;97.30;;;;;;4951872;28;20425;-89
2024/03/24 13:24:45;;;;;;;0.90;0.80;;;9.10;97.30;;;;;;4951599;28;20549;-89
2024/03/24 13:27:19;;;;;;;0.90;0.80;;;9.30;96.70;;;;;;4948116;28;20514;-89
2024/03/24 13:29:44;;;;;;;2.80;1.23;;;9.10;97.30;;;;;;4953316;28;20441;-89
2024/03/24 13:32:10;;;;;;;2.83;1.10;;;9.40;97.30;;;;;;4959767;28;20426;-89
2024/03/24 13:34:35;;;;;;;1.00;0.90;;;9.30;96.90;;;;;;4959235;28;20186;-88
2024/03/24 13:37:18;;;;;;;1.10;1.00;;;9.50;96.80;;;;;;4954537;28;20614;-89
2024/03/24 13:40:02;;;;;;;1.10;0.80;;;10.10;97.00;;;;;;4947751;28;20581;-88
2024/03/24 13:42:28;;;;;;;2.67;1.93;;;10.60;96.10;;;;;;4955587;28;20422;-89
2024/03/24 13:45:06;;;;;;;1.20;1.10;;;10.60;95.50;;;;;;4954753;28;20461;-88
2024/03/24 13:47:34;;;;;;;1.10;1.00;;;10.10;95.70;;;;;;4947220;28;20539;-89
2024/03/24 13:50:01;;;;;;;1.00;0.90;;;10.30;96.20;;;;;;4955153;28;20446;-88
2024/03/24 13:52:31;;;;;;;0.90;0.80;;;10.70;94.80;;;;;;4957994;28;20427;-89
2024/03/24 13:54:59;;;;;;;0.90;0.80;;;10.50;93.70;;;;;;4963326;28;20449;-89
2024/03/24 13:57:24;;;;;;;1.20;0.90;;;10.10;94.40;;;;;;4960158;28;20575;-89
2024/03/24 13:59:50;;;;;;;1.53;1.20;;;10.70;94.50;;;;;;4955897;28;20449;-90
2024/03/24 14:02:16;;;;;;;1.43;1.33;;;11.10;92.50;;;;;;4975383;28;20182;-89
2024/03/24 14:04:42;;;;;;;1.00;0.90;;;10.90;91.80;;;;;;4957776;28;20214;-90
2024/03/24 14:07:09;;;;;;;6.53;2.10;;;10.50;93.20;;;;;;4964484;28;20795;-89
2024/03/24 14:09:36;;;;;;;1.03;0.80;;;10.10;92.30;;;;;;4962480;28;20547;-88
2024/03/24 14:12:02;;;;;;;0.93;0.87;;;9.90;93.20;;;;;;4963762;28;20480;-89
2024/03/24 14:14:47;;;;;;;0.97;0.90;;;10.40;93.40;;;;;;4958918;28;20621;-89
2024/03/24 14:17:38;;;;;;;1.53;0.90;;;11.00;92.40;;;;;;4961885;28;20429;-88
2024/03/24 14:20:06;;;;;;;1.00;0.90;;;11.20;92.00;;;;;;4966709;28;20449;-89
2024/03/24 14:22:34;;;;;;;1.50;1.40;;;11.60;89.50;;;;;;4958308;28;20887;-89
2024/03/24 14:25:06;;;;;;;1.23;1.20;;;11.30;89.20;;;;;;4965201;28;20503;-88
2024/03/24 14:27:32;;;;;;;1.50;1.40;;;10.50;90.00;;;;;;4961468;28;20433;-89
2024/03/24 14:29:57;;;;;;;1.10;1.00;;;9.90;91.70;;;;;;4984338;28;20430;-89
2024/03/24 14:32:23;;;;;;;1.93;1.83;;;9.70;93.80;;;;;;4963308;28;20278;-89
2024/03/24 14:34:48;;;;;;;2.70;1.50;;;9.60;94.10;;;;;;4958085;28;20183;-89
2024/03/24 14:37:44;;;;;;;3.27;1.13;;;9.40;94.60;;;;;;4941194;28;20230;-90
2024/03/24 14:40:10;;;;;;;1.03;0.93;;;9.30;94.90;;;;;;4950439;28;20207;-88
2024/03/24 14:43:00;;;;;;;1.13;1.03;;;9.20;94.70;;;;;;4949111;28;20472;-90
2024/03/24 14:46:12;;;;;;;1.10;1.00;;;9.10;95.50;;;;;;4965126;28;20209;-89
2024/03/24 14:48:38;;;;;;;1.00;0.90;;;9.10;94.80;;;;;;4953492;28;20426;-89
2024/03/24 14:51:04;;;;;;;1.23;1.13;;;9.00;94.80;;;;;;4959139;28;20439;-88
2024/03/24 14:53:29;;;;;;;1.20;1.10;;;8.90;94.80;;;;;;4959978;28;20205;-89
2024/03/24 14:55:55;;;;;;;0.90;0.80;;;8.80;95.30;;;;;;4974384;28;20795;-89
2024/03/24 14:58:21;;;;;;;0.90;0.80;;;8.80;96.40;;;;;;4963118;28;20204;-90
2024/03/24 15:00:49;;;;;;;0.97;0.87;;;8.70;97.30;;;;;;4954631;28;20230;-89
2024/03/24 15:03:15;;;;;;;1.63;1.43;;;8.60;97.30;;;;;;4960498;28;20430;-87
2024/03/24 15:05:42;;;;;;;1.40;1.30;;;8.30;97.30;;;;;;4953967;28;20461;-88
2024/03/24 15:08:08;;;;;;;1.03;0.93;;;8.10;97.30;;;;;;4953641;28;20215;-88
2024/03/24 15:10:42;;;;;;;1.20;1.10;;;8.00;97.30;;;;;;4960035;28;20534;-89
2024/03/24 15:13:07;;;;;;;1.20;1.10;;;7.90;97.30;;;;;;4953895;28;20427;-89
2024/03/24 15:15:33;;;;;;;0.90;0.80;;;8.00;97.30;;;;;;4954522;28;20959;-90
2024/03/24 15:17:59;;;;;;;1.03;0.93;;;8.00;97.30;;;;;;4957925;28;20274;-88
2024/03/24 15:20:49;;;;;;;1.23;1.13;;;8.00;97.30;;;;;;4954720;28;20257;-89
2024/03/24 15:23:23;;;;;;;1.10;1.00;;;8.10;97.30;;;;;;4954443;28;20518;-89
2024/03/24 15:25:52;;;;;;;1.00;0.90;;;8.10;97.30;;;;;;4959149;28;20477;-87
2024/03/24 15:28:21;;;;;;;1.40;1.30;;;8.20;97.30;;;;;;4953527;28;20427;-89
2024/03/24 15:30:49;;;;;;;1.10;1.00;;;8.20;97.30;;;;;;4947083;28;20451;-90
2024/03/24 15:33:24;;;;;;;1.33;1.23;;;8.20;97.30;;;;;;4963543;28;20956;-88
2024/03/24 15:35:49;;;;;;;1.00;0.90;;;8.20;97.30;;;;;;4951257;28;20425;-89
2024/03/24 15:38:22;;;;;;;1.10;1.00;;;8.20;97.30;;;;;;4967896;28;20437;-90
2024/03/24 15:40:51;;;;;;;1.50;1.10;;;8.10;97.30;;;;;;4957629;28;20215;-90
2024/03/24 15:43:21;;;;;;;1.30;1.20;;;8.20;97.30;;;;;;4943577;29;20462;-90
2024/03/24 15:46:03;;;;;;;1.10;1.00;;;8.20;97.30;;;;;;4946448;29;20478;-89
2024/03/24 15:48:32;;;;;;;1.30;1.20;;;8.20;97.30;;;;;;4946980;28;20945;-91
2024/03/24 15:51:00;;;;;;;1.93;1.60;;;8.20;97.30;;;;;;4958255;28;20435;-90
2024/03/24 15:53:27;;;;;;;6.13;1.97;;;8.10;97.30;;;;;;4948221;28;20503;-88
2024/03/24 15:56:17;;;;;;;0.80;0.80;;;8.10;97.30;;;;;;4953546;28;20427;-89
2024/03/24 15:59:01;;;;;;;1.30;1.20;;;8.10;97.30;;;;;;4951738;29;20937;-88
2024/03/24 16:01:36;;;;;;;1.10;1.00;;;8.00;97.30;;;;;;4958760;28;20474;-89
2024/03/24 16:04:02;;;;;;;1.00;0.90;;;7.90;97.30;;;;;;4955600;28;20423;-89
2024/03/24 16:06:30;;;;;;;1.10;1.00;;;7.80;97.30;;;;;;4955479;28;20503;-90
2024/03/24 16:08:57;;;;;;;1.73;1.50;;;7.70;97.30;;;;;;4971648;28;20418;-88
2024/03/24 16:11:26;;;;;;;1.63;1.53;;;7.50;97.30;;;;;;4965865;28;20465;-89
2024/03/24 16:13:59;;;;;;;1.30;1.20;;;7.40;97.30;;;;;;4954777;28;20840;-89
2024/03/24 16:16:25;;;;;;;1.33;1.23;;;7.40;97.30;;;;;;4953923;28;20784;-90
2024/03/24 16:18:51;;;;;;;1.33;1.23;;;7.40;97.30;;;;;;4958601;28;20414;-87
2024/03/24 16:21:45;;;;;;;2.13;1.97;;;7.40;97.30;;;;;;4957568;28;20458;-91
2024/03/24 16:24:10;;;;;;;2.00;1.90;;;7.30;97.30;;;;;;4957739;28;20297;-90
2024/03/24 16:26:36;;;;;;;1.63;1.53;;;7.30;97.30;;;;;;4951266;28;20467;-90
2024/03/24 16:29:01;;;;;;;0.80;0.70;;;7.30;97.30;;;;;;4943717;28;20188;-91
2024/03/24 16:31:27;;;;;;;1.47;1.40;;;7.10;97.30;;;;;;4948488;28;20251;-92
2024/03/24 16:33:52;;;;;;;1.13;1.10;;;6.80;97.30;;;;;;4947223;28;20641;-90
2024/03/24 16:36:22;;;;;;;1.10;1.00;;;6.50;97.30;;;;;;4942344;28;20191;-91
2024/03/24 16:38:47;;;;;;;1.87;1.57;;;6.20;97.30;;;;;;4956185;28;20250;-92
2024/03/24 16:41:13;;;;;;;1.60;1.50;;;6.10;97.30;;;;;;4954148;28;20470;-91
2024/03/24 16:43:39;;;;;;;14.10;2.10;;;6.10;97.30;;;;;;4959914;28;20708;-91
2024/03/24 16:46:05;;;;;;;5.50;1.40;;;6.00;97.30;;;;;;4957615;28;20207;-91
2024/03/24 16:48:30;;;;;;;1.03;1.03;;;6.00;97.30;;;;;;4948741;28;20432;-90
2024/03/24 16:50:56;;;;;;;1.10;1.00;;;6.00;97.30;;;;;;4964774;28;20207;-91
2024/03/24 16:53:22;;;;;;;1.27;1.10;;;6.00;97.30;;;;;;4953333;28;20230;-91
2024/03/24 16:55:47;;;;;;;1.00;0.90;;;5.90;97.30;;;;;;4957926;28;20411;-91
2024/03/24 16:58:15;;;;;;;1.10;1.00;;;6.00;97.30;;;;;;4952310;28;20449;-91
2024/03/24 17:00:42;;;;;;;1.00;0.90;;;5.90;97.30;;;;;;4953865;28;20926;-92
2024/03/24 17:03:09;;;;;;;1.33;1.23;;;5.90;97.30;;;;;;4953782;28;20488;-90
2024/03/24 17:05:35;;;;;;;1.10;1.00;;;5.90;97.30;;;;;;4953027;28;20471;-91
2024/03/24 17:08:00;;;;;;;1.20;1.10;;;5.90;97.30;;;;;;4963027;28;20419;-90
2024/03/24 17:10:26;;;;;;;1.27;1.17;;;5.90;97.30;;;;;;4954676;28;20207;-90
2024/03/24 17:12:51;;;;;;;1.33;1.23;;;5.90;97.30;;;;;;4956939;28;20175;-90
2024/03/24 17:15:17;;;;;;;3.67;1.10;;;5.90;97.30;;;;;;4957710;28;20540;-90
2024/03/24 17:17:42;;;;;;;5.90;1.63;;;5.90;97.30;;;;;;4951585;28;20638;-91
2024/03/24 17:20:11;;;;;;;2.17;2.03;;;5.90;97.30;;;;;;4972149;28;20209;-92
2024/03/24 17:22:39;;;;;;;1.43;1.33;;;5.90;97.30;;;;;;4952451;28;20207;-91
2024/03/24 17:25:07;;;;;;;1.10;1.00;;;5.90;97.30;;;;;;4957003;28;21013;-91
2024/03/24 17:27:34;;;;;;;1.00;0.90;;;5.90;97.30;;;;;;4961759;28;20838;-91
2024/03/24 17:30:00;;;;;;;1.43;1.30;;;5.90;97.30;;;;;;4963944;28;20952;-91
2024/03/24 17:32:28;;;;;;;1.10;1.10;;;5.90;97.30;;;;;;4959941;28;20425;-91
2024/03/24 17:34:56;;;;;;;1.10;1.00;;;5.90;97.30;;;;;;4965753;28;20658;-90
2024/03/24 17:37:21;;;;;;;1.20;1.10;;;5.90;97.30;;;;;;4967373;28;20423;-90
2024/03/24 17:39:49;;;;;;;27.47;3.87;;;5.90;97.30;;;;;;4962132;28;20442;-91
2024/03/24 17:42:15;;;;;;;1.87;1.47;;;5.90;97.30;;;;;;4971618;28;20195;-91
2024/03/24 17:44:41;;;;;;;0.83;0.73;;;6.00;97.30;;;;;;4969973;28;20461;-91
2024/03/24 17:47:07;;;;;;;2.50;2.40;;;6.00;97.30;;;;;;4973942;28;20909;-91
2024/03/24 17:49:33;;;;;;;2.77;1.93;;;6.00;97.30;;;;;;4972923;28;20441;-90
2024/03/24 17:51:58;;;;;;;1.30;1.20;;;6.00;97.30;;;;;;4964857;28;20565;-91
2024/03/24 17:54:24;;;;;;;1.10;1.00;;;6.00;97.30;;;;;;4972709;28;20441;-90
2024/03/24 17:56:51;;;;;;;0.93;0.83;;;6.00;97.30;;;;;;4967176;28;20187;-90
2024/03/24 17:59:16;;;;;;;1.67;1.57;;;6.10;97.30;;;;;;4964326;28;20206;-91
2024/03/24 18:01:42;;;;;;;1.40;1.30;;;6.10;97.30;;;;;;4969491;28;20500;-91
2024/03/24 18:04:08;;;;;;;1.10;1.00;;;6.20;97.30;;;;;;4972398;28;20175;-91